Time;durP1;ratioP1;P1;durP2;ratioP2;P2;SDS_P1;SDS_P2;PMS_P1;PMS_P2;Temp;Humidity;BMP_temperature;BMP_pressure;BME280_temperature;BME280_humidity;BME280_pressure;Samples;Min_cycle;Max_cycle;Signal;HPM_P1;HPM_P2
2022/05/26 00:02:20;;;;;;;3.87;2.30;;;18.80;99.90;;;;;;5053995;28;20536;-72
2022/05/26 00:04:47;;;;;;;7.10;2.40;;;18.80;99.90;;;;;;5060099;28;20183;-72
2022/05/26 00:07:13;;;;;;;4.67;2.10;;;18.90;99.90;;;;;;5066286;28;20191;-72
2022/05/26 00:09:40;;;;;;;3.47;2.10;;;18.80;99.90;;;;;;5066132;28;20195;-72
2022/05/26 00:12:07;;;;;;;5.30;2.00;;;18.80;99.90;;;;;;5035963;28;20186;-72
2022/05/26 00:14:33;;;;;;;5.80;2.20;;;18.80;99.90;;;;;;5062761;28;20210;-72
2022/05/26 00:17:03;;;;;;;7.27;2.13;;;18.90;99.90;;;;;;5072948;28;20198;-72
2022/05/26 00:19:29;;;;;;;5.33;2.33;;;18.80;99.90;;;;;;5069464;28;20174;-72
2022/05/26 00:21:57;;;;;;;3.67;2.10;;;18.80;99.90;;;;;;5067369;28;20182;-72
2022/05/26 00:24:24;;;;;;;7.17;2.07;;;18.70;99.90;;;;;;5050682;28;20214;-72
2022/05/26 00:26:50;;;;;;;3.50;2.13;;;18.70;99.90;;;;;;5058910;28;20216;-72
2022/05/26 00:29:17;;;;;;;6.73;2.40;;;18.60;99.90;;;;;;5049813;28;20205;-72
2022/05/26 00:31:43;;;;;;;4.43;2.30;;;18.60;99.90;;;;;;5054579;28;20211;-72
2022/05/26 00:34:10;;;;;;;3.87;2.30;;;18.60;99.90;;;;;;5067072;28;20270;-72
2022/05/26 00:36:43;;;;;;;6.73;2.20;;;18.60;99.90;;;;;;5050726;28;20174;-72
2022/05/26 00:39:18;;;;;;;6.07;2.40;;;18.70;99.90;;;;;;5089661;28;20519;-72
2022/05/26 00:41:51;;;;;;;5.20;2.20;;;18.70;99.90;;;;;;5050326;28;20187;-72
2022/05/26 00:44:18;;;;;;;4.53;2.27;;;18.70;99.90;;;;;;5042618;28;20189;-72
2022/05/26 00:46:53;;;;;;;5.47;2.20;;;18.80;99.90;;;;;;5068243;28;20247;-72
2022/05/26 00:49:48;;;;;;;4.33;2.27;;;18.80;99.90;;;;;;5055275;28;20658;-72
2022/05/26 00:52:45;;;;;;;6.57;2.77;;;18.80;99.90;;;;;;5065745;28;20257;-72
2022/05/26 00:55:21;;;;;;;5.33;2.20;;;18.80;99.90;;;;;;5057741;28;20199;-72
2022/05/26 00:57:58;;;;;;;5.93;2.23;;;18.80;99.90;;;;;;5050363;28;20279;-72
2022/05/26 01:00:30;;;;;;;6.03;2.47;;;18.70;99.90;;;;;;5062844;28;20523;-72
2022/05/26 01:03:27;;;;;;;2.87;2.07;;;18.70;99.90;;;;;;5054709;28;20185;-72
2022/05/26 01:06:08;;;;;;;4.80;2.50;;;18.60;99.90;;;;;;5062007;28;20228;-72
2022/05/26 01:08:49;;;;;;;3.80;2.07;;;18.50;99.90;;;;;;5080583;28;20186;-72
2022/05/26 01:11:16;;;;;;;4.90;2.20;;;18.60;99.90;;;;;;5066687;28;20190;-72
2022/05/26 01:13:52;;;;;;;3.70;2.20;;;18.50;99.90;;;;;;5050348;28;20187;-72
2022/05/26 01:16:38;;;;;;;7.10;2.30;;;18.60;99.90;;;;;;5071443;28;20207;-72
2022/05/26 01:19:40;;;;;;;4.33;2.30;;;18.60;99.90;;;;;;5083268;28;20214;-72
2022/05/26 01:22:51;;;;;;;7.33;2.30;;;18.50;99.90;;;;;;5069298;28;20642;-72
2022/05/26 01:26:06;;;;;;;11.00;2.57;;;18.60;99.90;;;;;;5074367;28;20194;-72
2022/05/26 01:29:17;;;;;;;6.17;2.57;;;18.50;99.90;;;;;;5046716;28;20210;-72
2022/05/26 01:32:41;;;;;;;7.47;2.43;;;18.50;99.90;;;;;;5050752;28;20222;-72
2022/05/26 01:35:45;;;;;;;4.30;2.00;;;18.50;99.90;;;;;;5059922;28;20227;-72
2022/05/26 01:38:30;;;;;;;6.27;2.10;;;18.50;99.90;;;;;;5067618;28;20181;-72
2022/05/26 01:41:43;;;;;;;4.80;2.30;;;18.50;99.90;;;;;;5071204;28;20195;-72
2022/05/26 01:45:04;;;;;;;4.70;2.57;;;18.50;99.90;;;;;;5057806;28;20562;-72
2022/05/26 01:47:45;;;;;;;3.77;1.90;;;18.40;99.90;;;;;;5075005;28;20195;-72
2022/05/26 01:50:46;;;;;;;3.60;2.20;;;18.30;99.90;;;;;;5068520;28;20214;-72
2022/05/26 01:53:41;;;;;;;5.27;2.20;;;18.30;99.90;;;;;;5061185;28;20196;-72
2022/05/26 01:56:29;;;;;;;4.53;2.03;;;18.40;99.90;;;;;;5043623;28;20667;-72
2022/05/26 01:59:13;;;;;;;8.27;2.40;;;18.30;99.90;;;;;;5066397;28;20215;-72
2022/05/26 02:01:58;;;;;;;5.23;2.53;;;18.40;99.90;;;;;;5076795;28;20190;-72
2022/05/26 02:04:38;;;;;;;4.27;2.10;;;18.50;99.90;;;;;;5039087;28;20189;-72
2022/05/26 02:07:19;;;;;;;7.57;2.37;;;18.50;99.90;;;;;;5058996;28;20188;-72
2022/05/26 02:09:45;;;;;;;4.73;2.40;;;18.50;99.90;;;;;;5050371;28;20188;-72
2022/05/26 02:12:33;;;;;;;4.57;2.30;;;18.50;99.90;;;;;;5071098;28;20179;-72
2022/05/26 02:15:22;;;;;;;5.83;2.13;;;18.50;99.90;;;;;;5064017;28;20207;-72
2022/05/26 02:18:03;;;;;;;5.53;2.40;;;18.40;99.90;;;;;;5039284;28;20177;-72
2022/05/26 02:20:50;;;;;;;9.53;2.50;;;18.40;99.90;;;;;;5057587;28;20183;-72
2022/05/26 02:23:45;;;;;;;4.33;2.20;;;18.40;99.90;;;;;;5063785;28;20247;-72
2022/05/26 02:26:14;;;;;;;5.23;2.37;;;18.40;99.90;;;;;;5050281;28;20175;-72
2022/05/26 02:31:30;;;;;;;5.53;2.20;;;18.40;99.90;;;;;;5073365;28;20250;-72
2022/05/26 02:34:01;;;;;;;5.10;2.07;;;18.40;99.90;;;;;;5067940;28;20194;-72
2022/05/26 02:36:36;;;;;;;6.87;2.40;;;18.30;99.90;;;;;;5061930;28;20344;-72
2022/05/26 02:39:04;;;;;;;6.83;2.20;;;18.30;99.90;;;;;;5056219;28;20248;-72
2022/05/26 02:41:34;;;;;;;4.03;2.00;;;18.40;99.90;;;;;;5065045;28;22181;-72
2022/05/26 02:44:02;;;;;;;4.20;2.10;;;18.40;99.90;;;;;;5077866;28;20631;-72
2022/05/26 02:47:28;;;;;;;7.73;2.40;;;18.40;99.90;;;;;;5068718;28;20179;-72
2022/05/26 02:50:56;;;;;;;4.50;2.00;;;18.30;99.90;;;;;;5069280;28;20194;-72
2022/05/26 02:53:44;;;;;;;6.37;2.10;;;18.40;99.90;;;;;;5000643;28;20202;-72
2022/05/26 02:56:49;;;;;;;5.90;2.37;;;18.40;99.90;;;;;;5065304;28;20250;-72
2022/05/26 02:59:24;;;;;;;5.87;2.37;;;18.40;99.90;;;;;;5077510;28;20252;-72
2022/05/26 03:02:02;;;;;;;5.27;2.30;;;18.40;99.90;;;;;;5063366;28;20611;-72
2022/05/26 03:05:01;;;;;;;4.50;2.23;;;18.40;99.90;;;;;;5064859;28;20299;-72
2022/05/26 03:07:32;;;;;;;5.17;2.53;;;18.40;99.90;;;;;;5067310;28;20203;-72
2022/05/26 03:10:06;;;;;;;4.60;2.33;;;18.40;99.90;;;;;;5074617;28;20186;-72
2022/05/26 03:12:35;;;;;;;6.27;2.10;;;18.40;99.90;;;;;;5065822;28;20693;-72
2022/05/26 03:15:06;;;;;;;4.80;2.70;;;18.50;99.90;;;;;;5069867;28;20250;-72
2022/05/26 03:17:33;;;;;;;4.80;2.40;;;18.50;99.90;;;;;;5060492;28;20630;-72
2022/05/26 03:19:59;;;;;;;6.93;2.40;;;18.50;99.90;;;;;;5071894;28;20190;-72
2022/05/26 03:22:26;;;;;;;5.43;2.10;;;18.50;99.90;;;;;;5047105;28;20194;-72
2022/05/26 03:24:53;;;;;;;6.20;2.20;;;18.40;99.90;;;;;;5060211;28;20185;-72
2022/05/26 03:27:20;;;;;;;4.83;2.13;;;18.40;99.90;;;;;;5066509;28;20183;-72
2022/05/26 03:29:46;;;;;;;5.03;2.40;;;18.40;99.90;;;;;;5064109;28;20199;-72
2022/05/26 03:32:12;;;;;;;9.07;2.60;;;18.40;99.90;;;;;;5063144;28;20222;-72
2022/05/26 03:40:49;;;;;;;4.60;2.77;;;18.50;99.90;;;;;;5032013;28;20582;-72
2022/05/26 03:43:16;;;;;;;9.60;2.53;;;18.50;99.90;;;;;;5042963;28;20206;-72
2022/05/26 03:45:43;;;;;;;7.20;2.30;;;18.50;99.90;;;;;;5062961;28;20194;-72
2022/05/26 03:48:10;;;;;;;5.10;2.43;;;18.60;99.90;;;;;;5051339;28;20647;-72
2022/05/26 03:50:37;;;;;;;6.57;2.47;;;18.60;99.90;;;;;;5059073;28;20203;-72
2022/05/26 03:53:04;;;;;;;7.23;2.50;;;18.60;99.90;;;;;;5068130;28;20266;-72
2022/05/26 03:55:30;;;;;;;3.50;2.10;;;18.60;99.90;;;;;;5065640;28;20233;-72
2022/05/26 03:57:59;;;;;;;6.03;2.40;;;18.60;99.90;;;;;;5053608;28;20183;-72
2022/05/26 04:00:25;;;;;;;7.40;2.70;;;18.60;99.90;;;;;;5069573;28;20182;-72
2022/05/26 04:02:52;;;;;;;4.13;2.10;;;18.60;99.90;;;;;;5048154;28;20717;-72
2022/05/26 04:05:19;;;;;;;8.13;2.80;;;18.50;99.90;;;;;;5067886;28;20615;-72
2022/05/26 04:07:45;;;;;;;4.87;2.53;;;18.50;99.90;;;;;;5050200;28;20195;-71
2022/05/26 04:10:13;;;;;;;4.80;2.10;;;18.50;99.90;;;;;;5037877;28;20199;-72
2022/05/26 04:12:44;;;;;;;3.53;2.30;;;18.60;99.90;;;;;;5053671;28;20189;-72
2022/05/26 04:15:13;;;;;;;5.33;2.40;;;18.60;99.90;;;;;;5067723;28;20218;-72
2022/05/26 04:17:40;;;;;;;7.40;2.60;;;18.60;99.90;;;;;;5054919;28;20256;-72
2022/05/26 04:20:11;;;;;;;6.83;2.43;;;18.70;99.90;;;;;;5055057;28;20207;-72
2022/05/26 04:22:37;;;;;;;6.73;2.53;;;18.70;99.90;;;;;;5084697;28;20294;-72
2022/05/26 04:25:05;;;;;;;7.10;2.50;;;18.70;99.90;;;;;;5067498;28;20189;-72
2022/05/26 04:27:33;;;;;;;5.33;2.33;;;18.80;99.90;;;;;;5067924;28;20274;-72
2022/05/26 04:30:03;;;;;;;6.47;2.33;;;18.80;99.90;;;;;;5064584;28;20197;-72
2022/05/26 04:32:29;;;;;;;6.47;2.47;;;18.90;99.90;;;;;;5072742;28;20227;-72
2022/05/26 04:34:56;;;;;;;5.10;2.87;;;18.90;99.90;;;;;;5070568;28;20213;-72
2022/05/26 04:37:26;;;;;;;4.87;2.50;;;19.00;99.90;;;;;;5068408;28;20810;-72
2022/05/26 04:39:57;;;;;;;4.03;2.30;;;19.10;99.90;;;;;;5077301;28;20265;-72
2022/05/26 04:42:28;;;;;;;7.50;2.57;;;19.10;99.90;;;;;;5066777;28;20195;-72
2022/05/26 04:44:55;;;;;;;5.93;2.80;;;19.20;99.90;;;;;;5076637;28;20201;-72
2022/05/26 04:47:26;;;;;;;4.37;2.17;;;19.20;99.90;;;;;;5062159;28;20194;-72
2022/05/26 04:49:53;;;;;;;6.60;2.60;;;19.30;99.90;;;;;;5061203;28;20687;-72
2022/05/26 04:52:22;;;;;;;6.77;2.63;;;19.30;99.90;;;;;;5063547;28;20549;-72
2022/05/26 04:54:49;;;;;;;4.40;2.37;;;19.30;99.90;;;;;;5087179;28;20264;-72
2022/05/26 04:57:24;;;;;;;4.33;3.03;;;19.40;99.90;;;;;;5063024;28;20281;-72
2022/05/26 04:59:51;;;;;;;6.70;2.27;;;19.50;99.90;;;;;;5067675;28;20187;-72
2022/05/26 05:02:21;;;;;;;5.47;2.70;;;19.60;99.90;;;;;;5055350;28;20193;-72
2022/05/26 05:04:48;;;;;;;5.73;2.70;;;19.70;99.90;;;;;;5065987;28;20785;-72
2022/05/26 05:07:18;;;;;;;8.17;2.60;;;19.70;99.90;;;;;;5046115;28;20291;-72
2022/05/26 05:09:47;;;;;;;5.00;2.30;;;19.80;99.90;;;;;;5065605;28;20190;-72
2022/05/26 05:12:18;;;;;;;3.60;2.40;;;19.80;99.90;;;;;;5052085;28;20246;-72
2022/05/26 05:14:49;;;;;;;5.47;2.70;;;19.80;99.90;;;;;;5050525;28;20219;-72
2022/05/26 05:17:22;;;;;;;10.90;2.60;;;19.90;99.90;;;;;;5079010;28;20209;-72
2022/05/26 05:19:49;;;;;;;6.80;2.77;;;20.00;99.90;;;;;;5059990;28;20285;-72
2022/05/26 05:22:26;;;;;;;4.80;2.80;;;20.00;99.90;;;;;;5029494;28;20186;-72
2022/05/26 05:25:30;;;;;;;4.43;2.67;;;20.00;99.90;;;;;;5068273;28;20201;-72
2022/05/26 05:28:21;;;;;;;9.53;2.87;;;20.10;99.90;;;;;;5051063;28;20206;-72
2022/05/26 05:31:09;;;;;;;4.87;2.97;;;20.20;99.90;;;;;;5054695;28;20186;-72
2022/05/26 05:33:55;;;;;;;4.70;2.33;;;20.20;99.90;;;;;;5080859;28;20198;-72
2022/05/26 05:36:27;;;;;;;3.57;2.40;;;20.30;99.90;;;;;;5049827;28;20287;-72
2022/05/26 05:38:56;;;;;;;5.63;2.73;;;20.40;99.90;;;;;;5075333;28;20939;-72
2022/05/26 05:41:27;;;;;;;4.33;2.83;;;20.40;99.90;;;;;;5061019;28;20199;-72
2022/05/26 05:43:56;;;;;;;7.93;2.70;;;20.50;99.90;;;;;;5047823;28;20861;-72
2022/05/26 05:46:23;;;;;;;5.03;2.83;;;20.50;99.90;;;;;;5056242;28;20237;-72
2022/05/26 05:48:50;;;;;;;7.57;2.63;;;20.60;99.90;;;;;;5062861;28;20225;-72
2022/05/26 05:51:17;;;;;;;4.70;2.43;;;20.60;99.90;;;;;;5066799;28;20212;-72
2022/05/26 05:53:44;;;;;;;10.37;3.00;;;20.70;99.90;;;;;;5067841;28;20195;-72
2022/05/26 05:56:11;;;;;;;5.50;2.73;;;20.80;99.90;;;;;;5052644;28;20595;-72
2022/05/26 05:58:37;;;;;;;5.00;2.43;;;20.90;99.90;;;;;;5067712;28;20493;-72
2022/05/26 06:01:07;;;;;;;6.43;2.77;;;20.90;99.90;;;;;;5021414;28;20187;-72
2022/05/26 06:03:35;;;;;;;5.83;2.80;;;20.90;99.90;;;;;;5056899;28;20494;-72
2022/05/26 06:06:04;;;;;;;7.43;3.13;;;21.10;99.90;;;;;;5051789;28;20186;-72
2022/05/26 06:08:32;;;;;;;9.50;3.00;;;21.20;99.90;;;;;;5076858;28;20657;-72
2022/05/26 06:10:59;;;;;;;8.60;3.50;;;21.20;99.90;;;;;;5070585;28;20677;-72
2022/05/26 06:13:26;;;;;;;7.43;3.10;;;21.40;99.90;;;;;;5054094;28;20197;-72
2022/05/26 06:15:53;;;;;;;6.40;3.03;;;21.50;99.90;;;;;;5066368;28;20206;-72
2022/05/26 06:18:20;;;;;;;7.67;3.30;;;21.50;99.90;;;;;;5070381;28;20198;-72
2022/05/26 06:20:47;;;;;;;10.57;3.27;;;21.60;99.90;;;;;;5049617;28;20207;-72
2022/05/26 06:23:18;;;;;;;6.17;2.97;;;21.70;99.90;;;;;;5065981;28;20286;-72
2022/05/26 06:25:48;;;;;;;6.50;2.93;;;21.90;99.90;;;;;;5063681;28;20194;-72
2022/05/26 06:30:59;;;;;;;4.43;2.83;;;22.00;99.90;;;;;;5068774;28;20202;-72
2022/05/26 06:39:03;;;;;;;5.33;3.57;;;22.30;99.90;;;;;;5073528;28;20679;-72
2022/05/26 06:44:19;;;;;;;10.70;3.67;;;22.50;99.90;;;;;;5074661;28;20190;-72
2022/05/26 06:46:45;;;;;;;8.80;3.53;;;22.50;99.90;;;;;;5061991;28;21078;-72
2022/05/26 06:49:15;;;;;;;10.43;3.73;;;22.50;99.90;;;;;;5050587;28;20244;-72
2022/05/26 06:51:44;;;;;;;8.27;3.67;;;22.60;99.90;;;;;;5065041;28;20195;-72
2022/05/26 06:54:12;;;;;;;9.25;3.92;;;22.70;99.90;;;;;;5035355;28;20191;-72
2022/05/26 06:56:38;;;;;;;11.57;3.80;;;22.70;99.90;;;;;;5070480;28;20228;-72
2022/05/26 06:59:06;;;;;;;11.10;3.60;;;22.80;99.90;;;;;;5063556;28;20263;-71
2022/05/26 07:01:33;;;;;;;7.37;3.80;;;22.80;99.90;;;;;;5050720;28;20190;-72
2022/05/26 07:03:59;;;;;;;8.20;3.45;;;22.80;99.90;;;;;;5053313;28;20194;-72
2022/05/26 07:06:28;;;;;;;10.63;3.95;;;22.80;99.90;;;;;;5049794;28;20195;-72
2022/05/26 07:08:55;;;;;;;9.65;4.18;;;22.90;99.90;;;;;;5061217;28;20849;-72
2022/05/26 07:11:21;;;;;;;8.30;3.22;;;22.90;99.90;;;;;;5067702;28;20195;-72
2022/05/26 07:13:50;;;;;;;9.77;3.95;;;23.00;99.90;;;;;;5065381;28;20226;-72
2022/05/26 07:16:17;;;;;;;9.40;3.20;;;23.10;99.90;;;;;;5068976;28;20271;-72
2022/05/26 07:18:47;;;;;;;10.85;3.40;;;23.20;99.90;;;;;;5029155;28;20265;-72
2022/05/26 07:21:14;;;;;;;9.13;3.88;;;23.20;99.90;;;;;;5031989;28;20195;-72
2022/05/26 07:23:41;;;;;;;9.80;3.67;;;23.30;99.90;;;;;;5055788;28;20183;-72
2022/05/26 07:26:14;;;;;;;8.38;3.88;;;23.30;99.90;;;;;;5061847;28;20711;-71
2022/05/26 07:28:42;;;;;;;6.30;3.28;;;23.30;99.90;;;;;;5050182;28;20878;-72
2022/05/26 07:31:11;;;;;;;9.05;3.78;;;23.40;99.90;;;;;;5065817;28;20280;-72
2022/05/26 07:33:38;;;;;;;8.85;4.20;;;23.50;99.90;;;;;;5059291;28;20760;-72
2022/05/26 07:36:08;;;;;;;7.25;3.58;;;23.60;99.90;;;;;;5026911;28;20215;-72
2022/05/26 07:41:25;;;;;;;12.32;4.13;;;23.60;99.90;;;;;;5074696;28;20183;-72
2022/05/26 07:43:59;;;;;;;9.93;3.40;;;23.80;99.90;;;;;;5069194;28;20277;-72
2022/05/26 07:46:27;;;;;;;9.43;3.40;;;23.80;99.90;;;;;;5065526;28;20186;-72
2022/05/26 07:48:54;;;;;;;7.93;3.53;;;23.80;99.90;;;;;;5051260;28;20215;-72
2022/05/26 07:51:21;;;;;;;8.57;3.50;;;23.90;99.90;;;;;;5051723;28;20190;-72
2022/05/26 07:53:49;;;;;;;8.40;3.38;;;24.00;99.90;;;;;;5062699;28;20222;-72
2022/05/26 07:56:16;;;;;;;11.23;3.92;;;24.00;99.90;;;;;;5062620;28;20237;-72
2022/05/26 07:58:43;;;;;;;10.15;3.28;;;24.10;99.90;;;;;;5064127;28;20186;-72
2022/05/26 08:01:11;;;;;;;10.60;3.05;;;24.10;99.90;;;;;;5048236;28;20187;-72
2022/05/26 08:03:38;;;;;;;8.63;3.20;;;24.10;99.90;;;;;;5053195;28;20617;-72
2022/05/26 08:06:06;;;;;;;7.60;3.30;;;24.20;99.90;;;;;;5059109;28;20318;-72
2022/05/26 08:08:35;;;;;;;9.13;3.20;;;24.20;99.90;;;;;;5058042;28;20219;-72
2022/05/26 08:11:02;;;;;;;8.27;3.50;;;24.30;99.90;;;;;;5059847;28;20212;-72
2022/05/26 08:13:28;;;;;;;7.28;3.13;;;24.40;99.90;;;;;;5063513;28;20280;-72
2022/05/26 08:15:55;;;;;;;7.15;3.10;;;24.50;99.90;;;;;;5064777;28;20714;-72
2022/05/26 08:18:22;;;;;;;10.20;2.92;;;24.50;99.90;;;;;;5059521;28;20376;-72
2022/05/26 08:20:48;;;;;;;5.93;3.00;;;24.60;99.90;;;;;;5068101;28;20707;-72
2022/05/26 08:23:15;;;;;;;11.93;3.13;;;24.70;99.90;;;;;;5023409;28;20189;-72
2022/05/26 08:25:41;;;;;;;13.65;3.58;;;24.80;99.90;;;;;;5052774;28;21438;-72
2022/05/26 08:28:08;;;;;;;9.20;3.15;;;24.80;99.90;;;;;;5048652;28;20229;-72
2022/05/26 08:30:34;;;;;;;9.95;3.50;;;24.90;99.90;;;;;;5028362;28;20263;-72
2022/05/26 08:33:04;;;;;;;8.48;3.47;;;25.00;99.90;;;;;;5065159;28;20233;-72
2022/05/26 08:35:31;;;;;;;7.00;3.17;;;25.00;99.90;;;;;;5055384;28;20218;-72
2022/05/26 08:37:57;;;;;;;5.93;2.97;;;25.10;99.90;;;;;;5059203;28;20182;-72
2022/05/26 08:40:24;;;;;;;8.18;2.90;;;25.20;99.90;;;;;;5063359;28;20187;-72
2022/05/26 08:42:50;;;;;;;9.52;3.13;;;25.30;99.90;;;;;;5064876;28;20221;-72
2022/05/26 08:45:16;;;;;;;9.73;3.33;;;25.50;99.90;;;;;;5058765;28;20679;-71
2022/05/26 08:47:47;;;;;;;8.38;3.50;;;25.50;99.90;;;;;;5058692;28;20195;-72
2022/05/26 08:50:27;;;;;;;6.60;3.08;;;25.60;99.90;;;;;;5065909;28;20943;-72
2022/05/26 08:53:30;;;;;;;10.02;3.20;;;25.80;99.90;;;;;;5064380;28;20780;-72
2022/05/26 08:55:57;;;;;;;10.77;3.60;;;25.90;99.90;;;;;;5041196;28;20543;-72
2022/05/26 08:58:37;;;;;;;6.78;2.80;;;25.90;99.90;;;;;;5067194;28;20320;-72
2022/05/26 09:01:12;;;;;;;7.78;3.50;;;26.00;99.90;;;;;;5037640;28;20216;-72
2022/05/26 09:03:38;;;;;;;8.77;3.40;;;26.00;99.90;;;;;;5064967;28;20530;-72
2022/05/26 09:06:14;;;;;;;7.00;2.72;;;26.10;99.90;;;;;;5059634;28;20179;-72
2022/05/26 09:14:30;;;;;;;8.20;2.58;;;26.40;99.90;;;;;;5068239;28;20183;-72
2022/05/26 09:17:04;;;;;;;6.65;2.95;;;26.50;99.90;;;;;;5066861;28;20269;-72
2022/05/26 09:19:50;;;;;;;10.73;2.60;;;26.60;99.90;;;;;;5032083;28;20650;-72
2022/05/26 09:22:45;;;;;;;7.97;3.42;;;26.60;99.90;;;;;;5073068;28;20191;-72
2022/05/26 09:25:42;;;;;;;9.48;2.90;;;26.70;99.90;;;;;;5053135;28;20190;-72
2022/05/26 09:28:39;;;;;;;6.22;2.55;;;26.70;99.90;;;;;;5071112;28;20584;-72
2022/05/26 09:31:43;;;;;;;7.35;3.13;;;26.80;99.90;;;;;;5050020;28;20644;-72
2022/05/26 09:34:32;;;;;;;8.32;2.70;;;26.90;99.90;;;;;;5050390;28;20269;-72
2022/05/26 09:37:04;;;;;;;10.55;2.90;;;26.90;99.90;;;;;;5043385;28;20276;-72
2022/05/26 09:39:44;;;;;;;8.75;2.83;;;26.90;99.90;;;;;;5051533;28;20793;-72
2022/05/26 09:42:20;;;;;;;6.78;2.95;;;27.00;99.90;;;;;;5071078;28;20174;-72
2022/05/26 09:45:13;;;;;;;5.70;2.55;;;27.10;99.90;;;;;;5065100;28;20198;-72
2022/05/26 09:48:01;;;;;;;7.00;2.78;;;27.20;99.90;;;;;;5069580;28;20191;-72
2022/05/26 09:50:33;;;;;;;9.65;2.35;;;27.40;99.90;;;;;;5086171;28;20544;-72
2022/05/26 09:53:07;;;;;;;7.30;2.65;;;27.50;99.90;;;;;;5063195;28;20190;-72
2022/05/26 09:55:48;;;;;;;9.48;2.47;;;27.40;99.90;;;;;;5071745;28;20203;-72
2022/05/26 09:58:31;;;;;;;5.15;2.58;;;27.40;99.90;;;;;;5071469;28;20183;-72
2022/05/26 10:01:06;;;;;;;8.77;2.58;;;27.50;99.90;;;;;;5063160;28;20723;-72
2022/05/26 10:04:05;;;;;;;9.05;2.70;;;27.60;99.90;;;;;;5089776;28;20874;-72
2022/05/26 10:06:42;;;;;;;7.35;2.65;;;27.60;99.90;;;;;;5071636;28;20274;-72
2022/05/26 10:09:35;;;;;;;5.45;2.45;;;27.60;99.90;;;;;;5060492;28;20292;-73
2022/05/26 10:12:32;;;;;;;6.28;2.95;;;27.60;99.90;;;;;;5045405;28;20308;-72
2022/05/26 10:15:14;;;;;;;5.13;2.88;;;27.80;99.90;;;;;;5060296;28;20227;-72
2022/05/26 10:18:13;;;;;;;7.65;2.90;;;27.80;99.90;;;;;;5052486;28;20616;-72
2022/05/26 10:21:38;;;;;;;9.07;3.08;;;27.90;99.90;;;;;;5057221;28;20643;-72
2022/05/26 10:24:41;;;;;;;7.45;2.60;;;27.80;99.90;;;;;;5052748;28;20225;-71
2022/05/26 10:28:00;;;;;;;5.03;2.50;;;28.00;99.90;;;;;;5064127;28;20227;-72
2022/05/26 10:31:25;;;;;;;7.80;3.10;;;28.00;99.90;;;;;;5064887;28;20903;-72
2022/05/26 10:34:00;;;;;;;7.97;2.70;;;27.90;99.90;;;;;;5067920;28;20260;-72
2022/05/26 10:36:57;;;;;;;8.40;2.78;;;27.90;99.90;;;;;;5069659;28;20244;-72
2022/05/26 10:40:13;;;;;;;5.55;2.42;;;27.90;99.90;;;;;;5070978;28;20738;-72
2022/05/26 10:42:54;;;;;;;10.25;3.13;;;27.90;99.90;;;;;;5058468;28;20986;-72
2022/05/26 10:45:39;;;;;;;7.43;2.85;;;27.90;99.90;;;;;;5056691;28;20240;-72
2022/05/26 10:48:34;;;;;;;8.50;2.97;;;27.80;99.90;;;;;;5060582;28;20194;-72
2022/05/26 10:51:28;;;;;;;6.40;2.70;;;27.80;99.90;;;;;;5068087;28;20198;-72
2022/05/26 10:54:33;;;;;;;7.90;2.65;;;27.80;99.90;;;;;;5049673;28;20248;-72
2022/05/26 10:57:30;;;;;;;10.70;3.17;;;27.80;99.90;;;;;;5023727;28;20203;-72
2022/05/26 11:00:15;;;;;;;5.43;2.92;;;27.70;99.90;;;;;;5035843;28;20699;-72
2022/05/26 11:03:14;;;;;;;7.25;2.88;;;27.70;99.90;;;;;;5066160;28;20195;-72
2022/05/26 11:06:04;;;;;;;8.65;2.83;;;27.70;99.90;;;;;;5064771;28;20183;-72
2022/05/26 11:08:49;;;;;;;8.57;3.20;;;27.60;99.90;;;;;;5066870;28;20232;-72
2022/05/26 11:11:47;;;;;;;7.75;2.67;;;27.50;99.90;;;;;;5064590;28;20186;-72
2022/05/26 11:17:33;;;;;;;7.28;2.75;;;27.50;99.90;;;;;;5055882;28;20186;-72
2022/05/26 11:20:18;;;;;;;9.57;3.03;;;27.40;99.90;;;;;;5061176;28;20838;-72
2022/05/26 11:22:45;;;;;;;9.70;3.50;;;27.50;99.90;;;;;;5064090;28;20763;-72
2022/05/26 11:25:19;;;;;;;8.70;2.58;;;27.40;99.90;;;;;;5060260;28;20270;-72
2022/05/26 11:28:10;;;;;;;7.65;3.03;;;27.40;99.90;;;;;;5039532;28;20205;-72
2022/05/26 11:37:30;;;;;;;12.18;3.00;;;27.40;99.90;;;;;;5050206;28;20215;-72
2022/05/26 11:40:03;;;;;;;12.10;3.67;;;27.50;99.90;;;;;;5035378;28;20240;-72
2022/05/26 11:42:33;;;;;;;6.97;3.45;;;27.50;99.90;;;;;;5050444;28;20195;-73
2022/05/26 11:45:35;;;;;;;8.55;3.50;;;27.50;99.90;;;;;;5071546;28;20222;-73
2022/05/26 11:48:07;;;;;;;8.90;3.15;;;27.40;99.90;;;;;;5052229;28;20431;-72
2022/05/26 11:51:15;;;;;;;12.35;3.17;;;27.40;99.90;;;;;;5059832;28;20265;-72
2022/05/26 11:53:47;;;;;;;7.10;3.05;;;27.40;99.90;;;;;;5068293;28;20202;-72
2022/05/26 11:59:26;;;;;;;5.90;2.90;;;27.60;99.90;;;;;;5061664;28;20190;-72
2022/05/26 12:02:27;;;;;;;8.57;3.10;;;27.60;99.90;;;;;;5040592;28;20190;-72
2022/05/26 12:04:53;;;;;;;5.13;2.75;;;27.60;99.90;;;;;;5058170;28;20191;-72
2022/05/26 12:07:23;;;;;;;9.38;3.13;;;27.50;99.90;;;;;;5061459;28;20698;-72
2022/05/26 12:09:57;;;;;;;7.38;2.90;;;27.50;99.90;;;;;;5060497;28;20744;-72
2022/05/26 12:12:30;;;;;;;9.25;3.40;;;27.60;99.90;;;;;;5062365;28;20622;-72
2022/05/26 12:15:09;;;;;;;9.68;3.17;;;27.70;99.90;;;;;;5063377;28;20219;-72
2022/05/26 12:17:43;;;;;;;10.63;3.20;;;27.60;99.90;;;;;;5056104;28;20274;-72
2022/05/26 12:20:13;;;;;;;9.68;3.45;;;27.60;99.90;;;;;;5043588;28;20190;-72
2022/05/26 12:23:00;;;;;;;8.82;2.90;;;27.70;99.90;;;;;;5058264;28;20182;-73
2022/05/26 12:25:39;;;;;;;9.18;3.00;;;27.60;99.90;;;;;;5039171;28;20193;-72
2022/05/26 12:28:14;;;;;;;7.22;3.00;;;27.70;99.90;;;;;;5073804;28;20189;-72
2022/05/26 12:30:44;;;;;;;6.20;2.88;;;27.60;99.90;;;;;;5064041;28;20658;-73
2022/05/26 12:33:19;;;;;;;7.82;3.15;;;27.70;99.90;;;;;;5062402;28;20229;-72
2022/05/26 12:36:16;;;;;;;7.22;2.97;;;27.70;99.90;;;;;;5074855;28;20212;-72
2022/05/26 12:39:19;;;;;;;6.28;2.95;;;27.80;99.90;;;;;;5043970;28;20199;-72
2022/05/26 12:42:39;;;;;;;10.27;3.17;;;27.80;99.90;;;;;;5067448;28;20214;-72
2022/05/26 12:45:46;;;;;;;7.57;3.25;;;27.80;99.90;;;;;;5025540;28;20880;-72
2022/05/26 12:48:37;;;;;;;6.72;2.90;;;27.80;99.90;;;;;;5050233;28;20186;-72
2022/05/26 12:51:12;;;;;;;7.18;3.30;;;27.70;99.90;;;;;;5065996;28;20244;-73
2022/05/26 12:53:50;;;;;;;6.93;2.97;;;27.60;99.90;;;;;;5068060;28;20247;-73
2022/05/26 12:56:59;;;;;;;7.85;3.17;;;27.60;99.90;;;;;;5068630;28;20312;-72
2022/05/26 12:59:32;;;;;;;7.93;3.22;;;27.60;99.90;;;;;;5048560;28;20198;-72
2022/05/26 13:01:59;;;;;;;9.10;3.17;;;27.30;99.90;;;;;;5059741;28;20208;-72
2022/05/26 13:04:32;;;;;;;5.72;3.08;;;27.20;99.90;;;;;;5053403;28;20187;-72
2022/05/26 13:07:05;;;;;;;5.68;3.05;;;27.10;99.90;;;;;;5048068;28;20712;-72
2022/05/26 13:09:51;;;;;;;7.63;3.35;;;27.30;99.90;;;;;;5048097;28;20206;-72
2022/05/26 13:12:24;;;;;;;9.10;3.40;;;27.30;99.90;;;;;;5054467;28;20190;-72
2022/05/26 13:14:57;;;;;;;10.18;3.55;;;27.00;99.90;;;;;;5076796;28;20602;-72
2022/05/26 13:17:28;;;;;;;8.60;3.25;;;27.10;99.90;;;;;;5047161;28;20221;-72
2022/05/26 13:20:03;;;;;;;9.50;3.28;;;27.00;99.90;;;;;;5052186;28;20189;-72
2022/05/26 13:22:39;;;;;;;5.85;2.80;;;26.90;99.90;;;;;;5058398;28;20639;-72
2022/05/26 13:25:31;;;;;;;10.05;3.33;;;26.80;99.90;;;;;;5033167;28;20269;-73
2022/05/26 13:28:04;;;;;;;7.25;3.20;;;26.90;99.90;;;;;;5033255;28;20197;-72
2022/05/26 13:33:50;;;;;;;8.23;3.50;;;26.80;99.90;;;;;;5061700;28;20544;-72
2022/05/26 13:36:35;;;;;;;7.35;3.15;;;26.80;99.90;;;;;;5074737;28;20199;-72
2022/05/26 13:39:25;;;;;;;8.80;3.20;;;27.10;99.90;;;;;;5066107;28;20183;-72
2022/05/26 13:41:54;;;;;;;9.30;3.35;;;27.00;99.90;;;;;;5066958;28;20178;-72
2022/05/26 13:44:35;;;;;;;10.55;3.42;;;27.10;99.90;;;;;;5081379;28;20195;-72
2022/05/26 13:47:06;;;;;;;9.48;3.30;;;27.20;99.90;;;;;;5063754;28;20193;-72
2022/05/26 13:49:43;;;;;;;7.10;3.20;;;27.20;99.90;;;;;;5056901;28;20286;-72
2022/05/26 13:52:28;;;;;;;8.18;3.72;;;27.10;99.90;;;;;;5024039;28;20217;-72
2022/05/26 13:55:15;;;;;;;9.48;3.30;;;27.20;99.90;;;;;;5059719;28;20803;-73
2022/05/26 13:57:50;;;;;;;7.93;3.65;;;27.20;99.90;;;;;;5047568;28;20203;-72
2022/05/26 14:00:36;;;;;;;7.68;3.53;;;27.20;99.90;;;;;;5070973;28;20187;-72
2022/05/26 14:03:28;;;;;;;9.40;3.13;;;27.10;99.90;;;;;;5065506;28;20273;-72
2022/05/26 14:05:57;;;;;;;5.30;2.88;;;27.10;99.90;;;;;;5064235;28;20187;-72
2022/05/26 14:08:24;;;;;;;10.10;3.38;;;27.20;99.90;;;;;;5059079;28;20191;-72
2022/05/26 14:10:54;;;;;;;6.00;3.00;;;27.20;99.90;;;;;;5074100;28;20975;-72
2022/05/26 14:13:23;;;;;;;9.57;3.85;;;27.00;99.90;;;;;;5056928;28;20198;-72
2022/05/26 14:16:04;;;;;;;8.13;3.10;;;27.10;99.90;;;;;;5052982;28;20736;-72
2022/05/26 14:18:43;;;;;;;9.68;3.28;;;27.10;99.90;;;;;;5046607;28;20559;-72
2022/05/26 14:21:13;;;;;;;12.35;3.50;;;27.10;99.90;;;;;;5070337;28;20201;-72
2022/05/26 14:23:48;;;;;;;6.18;3.22;;;27.00;99.90;;;;;;5069874;28;20192;-72